createdAt,value
2016-06-01T00:00:08.194Z,83.89
2016-06-01T00:01:08.244Z,83.41
2016-06-01T00:02:08.278Z,83.31
2016-06-01T00:03:08.172Z,83.12
2016-06-01T00:04:08.361Z,83.41
2016-06-01T00:05:08.239Z,83.41
2016-06-01T00:06:08.460Z,83.6
2016-06-01T00:07:08.494Z,83.6
2016-06-01T00:08:08.529Z,83.7
2016-06-01T00:09:09.156Z,83.12
2016-06-01T00:10:08.649Z,83.89
2016-06-01T00:11:08.710Z,83.6
2016-06-01T00:12:08.769Z,83.31
2016-06-01T00:13:08.830Z,83.8
2016-06-01T00:14:08.905Z,83.12
2016-06-01T00:15:08.796Z,83.89
2016-06-01T00:16:09.010Z,83.22
2016-06-01T00:17:09.086Z,83.51
2016-06-01T00:18:09.113Z,83.89
2016-06-01T00:19:09.156Z,83.89
2016-06-01T00:20:09.243Z,83.22
2016-06-01T00:21:09.280Z,83.31
2016-06-01T00:22:09.301Z,83.8
2016-06-01T00:23:09.354Z,83.7
2016-06-01T00:24:09.830Z,83.89
2016-06-01T00:25:09.442Z,83.89
2016-06-01T00:26:09.478Z,83.7
2016-06-01T00:27:09.513Z,84.18
2016-06-01T00:28:09.595Z,83.7
2016-06-01T00:29:09.615Z,83.6
2016-06-01T00:30:09.649Z,84.37
2016-06-01T00:31:09.683Z,84.08
2016-06-01T00:32:09.733Z,84.08
2016-06-01T00:33:09.783Z,84.27
2016-06-01T00:34:09.661Z,84.18
2016-06-01T00:35:09.914Z,84.08
2016-06-01T00:36:09.901Z,83.98
2016-06-01T00:37:09.936Z,84.08
2016-06-01T00:38:09.969Z,84.27
2016-06-01T00:39:10.019Z,84.08
2016-06-01T00:40:10.069Z,83.8
2016-06-01T00:41:10.103Z,84.27
2016-06-01T00:42:10.183Z,84.18
2016-06-01T00:43:10.186Z,84.18
2016-06-01T00:44:10.235Z,83.89
2016-06-01T00:45:10.269Z,84.47
2016-06-01T00:46:10.319Z,84.56
2016-06-01T00:47:10.352Z,83.89
2016-06-01T00:48:10.402Z,84.18
2016-06-01T00:49:10.468Z,84.18
2016-06-01T00:50:10.486Z,84.08
2016-06-01T00:51:10.535Z,84.08
2016-06-01T00:52:10.569Z,83.98
2016-06-01T00:53:10.604Z,83.98
2016-06-01T00:54:10.652Z,84.08
2016-06-01T00:55:10.687Z,83.98
2016-06-01T00:56:10.783Z,84.08
2016-06-01T00:57:10.770Z,83.89
2016-06-01T00:58:10.820Z,84.08
2016-06-01T00:59:10.854Z,84.47
2016-06-01T01:00:10.918Z,84.66
2016-06-01T01:01:10.937Z,84.75
2016-06-01T01:02:10.987Z,83.7
2016-06-01T01:03:11.084Z,83.98
2016-06-01T01:04:11.070Z,84.18
2016-06-01T01:05:10.948Z,83.89
2016-06-01T01:06:11.153Z,83.94
2016-06-01T01:07:11.203Z,84.18
2016-06-01T01:08:11.222Z,84.08
2016-06-01T01:09:11.568Z,84.42
2016-06-01T01:10:11.320Z,84.91
2016-06-01T01:11:11.214Z,85
2016-06-01T01:12:11.389Z,84.47
2016-06-01T01:13:11.282Z,84.23
2016-06-01T01:14:11.503Z,84.33
2016-06-01T01:15:11.522Z,84.61
2016-06-01T01:16:11.556Z,85.04
2016-06-01T01:17:11.636Z,85.04
2016-06-01T01:18:11.639Z,84.56
2016-06-01T01:19:11.688Z,84.47
2016-06-01T01:20:11.738Z,84.18
2016-06-01T01:21:11.772Z,84.37
2016-06-01T01:22:11.807Z,84.27
2016-06-01T01:23:11.855Z,84.37
2016-06-01T01:24:12.187Z,84.66
2016-06-01T01:25:11.799Z,84.56
2016-06-01T01:26:11.988Z,84.37
2016-06-01T01:27:12.007Z,84.66
2016-06-01T01:28:11.901Z,84.75
2016-06-01T01:29:12.107Z,84.75
2016-06-01T01:30:12.156Z,84.37
2016-06-01T01:31:12.173Z,84.27
2016-06-01T01:32:12.223Z,84.18
2016-06-01T01:33:12.273Z,84.75
2016-06-01T01:34:12.307Z,84.66
2016-06-01T01:35:12.341Z,83.89
2016-06-01T01:36:12.390Z,84.52
2016-06-01T01:37:12.425Z,84.52
2016-06-01T01:38:12.334Z,84.27
2016-06-01T01:39:12.570Z,84.47
2016-06-01T01:40:12.558Z,84.71
2016-06-01T01:41:12.591Z,84.14
2016-06-01T01:42:12.641Z,85.14
2016-06-01T01:43:12.691Z,84.81
2016-06-01T01:44:12.725Z,85.1
2016-06-01T01:45:12.758Z,84.71
2016-06-01T01:46:12.839Z,85
2016-06-01T01:47:12.858Z,84.71
2016-06-01T01:48:12.736Z,84.71
2016-06-01T01:49:12.769Z,85.1
2016-06-01T01:50:12.975Z,85.48
2016-06-01T01:51:13.010Z,84.81
2016-06-01T01:52:13.058Z,85.19
2016-06-01T01:53:13.108Z,84.75
2016-06-01T01:54:13.142Z,84.81
2016-06-01T01:55:13.176Z,85.38
2016-06-01T01:56:13.226Z,85.58
2016-06-01T01:57:13.276Z,85.28
2016-06-01T01:58:13.293Z,85
2016-06-01T01:59:13.187Z,85.1
2016-06-01T02:00:13.440Z,85.1
2016-06-01T02:01:13.426Z,84.91
2016-06-01T02:02:13.460Z,85.19
2016-06-01T02:03:13.509Z,85.1
2016-06-01T02:04:13.388Z,85.28
2016-06-01T02:05:13.437Z,85.24
2016-06-01T02:06:13.628Z,85
2016-06-01T02:07:13.709Z,84.95
2016-06-01T02:08:13.711Z,84.27
2016-06-01T02:09:13.775Z,84.56
2016-06-01T02:10:13.811Z,84.47
2016-06-01T02:11:13.844Z,84.81
2016-06-01T02:12:13.878Z,84.91
2016-06-01T02:13:13.772Z,84.37
2016-06-01T02:14:13.977Z,85.04
2016-06-01T02:15:14.011Z,84.37
2016-06-01T02:16:14.045Z,84.47
2016-06-01T02:17:14.080Z,84.23
2016-06-01T02:18:14.144Z,85.28
2016-06-01T02:19:14.163Z,85.04
2016-06-01T02:20:14.212Z,84.85
2016-06-01T02:21:14.246Z,84.75
2016-06-01T02:22:14.139Z,85
2016-06-01T02:23:14.329Z,85
2016-06-01T02:24:14.380Z,84.75
2016-06-01T02:25:14.476Z,84.71
2016-06-01T02:26:14.462Z,84.71
2016-06-01T02:27:14.496Z,84.81
2016-06-01T02:28:14.390Z,84.91
2016-06-01T02:29:14.595Z,85.19
2016-06-01T02:30:14.615Z,85.1
2016-06-01T02:31:14.664Z,85.1
2016-06-01T02:32:14.712Z,85.1
2016-06-01T02:33:14.779Z,85.1
2016-06-01T02:34:14.796Z,84.71
2016-06-01T02:35:14.831Z,84.81
2016-06-01T02:36:14.881Z,85.48
2016-06-01T02:37:14.914Z,85.48
2016-06-01T02:38:14.963Z,85
2016-06-01T02:39:15.200Z,85.28
2016-06-01T02:40:15.047Z,85.67
2016-06-01T02:41:15.081Z,85.86
2016-06-01T02:42:15.115Z,85.77
2016-06-01T02:43:15.165Z,85.58
2016-06-01T02:44:15.230Z,85.48
2016-06-01T02:45:15.232Z,85.28
2016-06-01T02:46:15.282Z,85.58
2016-06-01T02:47:15.378Z,85.86
2016-06-01T02:48:15.413Z,85.77
2016-06-01T02:49:15.400Z,86.05
2016-06-01T02:50:15.293Z,85.96
2016-06-01T02:51:15.513Z,86.34
2016-06-01T02:52:15.407Z,86.15
2016-06-01T02:53:15.567Z,86.54
2016-06-01T02:54:15.616Z,86.44
2016-06-01T02:55:15.713Z,85.77
2016-06-01T02:56:15.700Z,86.44
2016-06-01T02:57:15.749Z,86.44
2016-06-01T02:58:15.814Z,86.54
2016-06-01T02:59:15.818Z,86.34
2016-06-01T03:00:15.866Z,86.34
2016-06-01T03:01:15.901Z,86.72
2016-06-01T03:02:15.951Z,86.63
2016-06-01T03:03:15.999Z,86.72
2016-06-01T03:04:16.033Z,86.58
2016-06-01T03:05:16.068Z,86.44
2016-06-01T03:06:16.148Z,86.15
2016-06-01T03:07:16.151Z,86.82
2016-06-01T03:08:16.185Z,86.25
2016-06-01T03:09:16.781Z,86.82
2016-06-01T03:10:16.284Z,86.63
2016-06-01T03:11:16.317Z,87.01
2016-06-01T03:12:16.353Z,87.01
2016-06-01T03:13:16.401Z,86.63
2016-06-01T03:14:16.295Z,86.92
2016-06-01T03:15:16.485Z,87.21
2016-06-01T03:16:16.519Z,87.3
2016-06-01T03:17:16.569Z,87.11
2016-06-01T03:18:16.603Z,87.59
2016-06-01T03:19:16.636Z,87.78
2016-06-01T03:20:16.702Z,87.4
2016-06-01T03:21:16.767Z,87.59
2016-06-01T03:22:16.769Z,87.78
2016-06-01T03:23:16.819Z,87.98
2016-06-01T03:24:16.869Z,88.17
2016-06-01T03:25:16.888Z,88.45
2016-06-01T03:26:16.936Z,88.35
2016-06-01T03:27:16.971Z,88.55
2016-06-01T03:28:17.021Z,88.45
2016-06-01T03:29:17.054Z,88.45
2016-06-01T03:30:16.947Z,88.65
2016-06-01T03:31:17.138Z,88.93
2016-06-01T03:32:17.203Z,88.84
2016-06-01T03:33:17.221Z,88.35
2016-06-01T03:34:17.270Z,88.35
2016-06-01T03:35:17.320Z,88.07
2016-06-01T03:36:17.354Z,88.65
2016-06-01T03:37:17.404Z,88.07
2016-06-01T03:38:17.423Z,88.55
2016-06-01T03:39:17.487Z,88.65
2016-06-01T03:40:17.505Z,87.78
2016-06-01T03:41:17.555Z,87.78
2016-06-01T03:42:17.589Z,88.17
2016-06-01T03:43:17.639Z,88.17
2016-06-01T03:44:17.673Z,88.07
2016-06-01T03:45:17.723Z,88.26
2016-06-01T03:46:17.786Z,87.88
2016-06-01T03:47:17.789Z,88.07
2016-06-01T03:48:17.839Z,87.59
2016-06-01T03:49:17.889Z,88.07
2016-06-01T03:50:17.922Z,88.07
2016-06-01T03:51:17.958Z,87.88
2016-06-01T03:52:18.005Z,87.68
2016-06-01T03:53:18.088Z,88.45
2016-06-01T03:54:18.841Z,87.78
2016-06-01T03:55:18.124Z,87.78
2016-06-01T03:56:18.205Z,88.45
2016-06-01T03:57:18.224Z,88.65
2016-06-01T03:58:18.257Z,88.07
2016-06-01T03:59:18.291Z,88.17
2016-06-01T04:00:18.356Z,88.17
2016-06-01T04:01:18.374Z,88.31
2016-06-01T04:02:18.268Z,88.35
2016-06-01T04:03:18.458Z,88.17
2016-06-01T04:04:18.508Z,87.82
2016-06-01T04:05:18.540Z,87.59
2016-06-01T04:06:18.576Z,88.65
2016-06-01T04:07:18.626Z,88.17
2016-06-01T04:08:18.674Z,88.17
2016-06-01T04:09:18.568Z,87.82
2016-06-01T04:10:18.759Z,88.26
2016-06-01T04:11:18.776Z,87.88
2016-06-01T04:12:18.826Z,87.88
2016-06-01T04:13:18.876Z,88.11
2016-06-01T04:14:18.940Z,88.26
2016-06-01T04:15:18.959Z,87.63
2016-06-01T04:16:18.837Z,88.07
2016-06-01T04:17:18.886Z,87.73
2016-06-01T04:18:18.936Z,87.82
2016-06-01T04:19:19.110Z,87.98
2016-06-01T04:20:19.161Z,88.17
2016-06-01T04:21:19.209Z,88.17
2016-06-01T04:22:19.259Z,88.07
2016-06-01T04:23:19.293Z,88.35
2016-06-01T04:24:19.327Z,88.17
2016-06-01T04:25:19.376Z,87.78
2016-06-01T04:26:19.427Z,88.74
2016-06-01T04:27:19.444Z,88.74
2016-06-01T04:28:19.494Z,88.07
2016-06-01T04:29:19.527Z,88.74
2016-06-01T04:30:19.578Z,88.35
2016-06-01T04:31:19.610Z,89.03
2016-06-01T04:32:19.646Z,88.74
2016-06-01T04:33:19.538Z,88.35
2016-06-01T04:34:19.729Z,88.55
2016-06-01T04:35:19.794Z,89.03
2016-06-01T04:36:19.828Z,88.55
2016-06-01T04:37:19.862Z,88.74
2016-06-01T04:38:19.896Z,88.74
2016-06-01T04:39:20.087Z,88.93
2016-06-01T04:40:19.823Z,88.84
2016-06-01T04:41:20.029Z,88.74
2016-06-01T04:42:19.906Z,88.84
2016-06-01T04:43:20.112Z,89.12
2016-06-01T04:44:20.178Z,89.41
2016-06-01T04:45:20.195Z,89.26
2016-06-01T04:46:20.245Z,88.98
2016-06-01T04:47:20.295Z,89.17
2016-06-01T04:48:20.313Z,89.07
2016-06-01T04:49:20.364Z,89.26
2016-06-01T04:50:20.412Z,89.55
2016-06-01T04:51:20.461Z,89.55
2016-06-01T04:52:20.481Z,89.75
2016-06-01T04:53:20.374Z,89.61
2016-06-01T04:54:20.735Z,89.75
2016-06-01T04:55:20.614Z,89.46
2016-06-01T04:56:20.491Z,89.65
2016-06-01T04:57:20.713Z,89.46
2016-06-01T04:58:20.574Z,89.46
2016-06-01T04:59:20.906Z,89.46
2016-06-01T05:00:20.861Z,89.36
2016-06-01T05:01:20.849Z,89.65
2016-06-01T05:02:20.898Z,89.36
2016-06-01T05:03:21.010Z,89.36
2016-06-01T05:04:21.060Z,89.46
2016-06-01T05:05:21.077Z,89.07
2016-06-01T05:06:20.909Z,89.46
2016-06-01T05:07:21.099Z,89.55
2016-06-01T05:08:21.149Z,89.36
2016-06-01T05:09:21.214Z,89.75
2016-06-01T05:10:21.216Z,89.17
2016-06-01T05:11:21.265Z,89.65
2016-06-01T05:12:21.331Z,89.17
2016-06-01T05:13:21.349Z,89.46
2016-06-01T05:14:21.383Z,89.36
2016-06-01T05:15:21.433Z,89.26
2016-06-01T05:16:21.514Z,89.55
2016-06-01T05:17:21.548Z,88.88
2016-06-01T05:18:21.566Z,88.59
2016-06-01T05:19:21.897Z,88.88
2016-06-01T05:20:21.665Z,88.98
2016-06-01T05:21:22.496Z,88.4
2016-06-01T05:22:21.717Z,88.59
2016-06-01T05:23:21.860Z,88.88
2016-06-01T05:24:22.739Z,88.59
2016-06-01T05:25:22.491Z,88.79
2016-06-01T05:26:21.916Z,88.69
2016-06-01T05:27:21.950Z,88.83
2016-06-01T05:28:21.968Z,87.73
2016-06-01T05:29:21.986Z,88.21
2016-06-01T05:30:22.083Z,88.06
2016-06-01T05:31:26.944Z,88.11
2016-06-01T05:32:25.994Z,87.68
2016-06-01T05:33:27.466Z,88.06
2016-06-01T05:34:26.968Z,88.06
2016-06-01T05:35:27.674Z,88.16
2016-06-01T05:36:27.802Z,88.06
2016-06-01T05:37:25.805Z,87.58
2016-06-01T05:38:26.041Z,87.58
2016-06-01T05:39:24.419Z,87.68
2016-06-01T05:40:26.812Z,87.39
2016-06-01T05:41:27.237Z,87.58
2016-06-01T05:42:28.662Z,87.49
2016-06-01T05:43:27.148Z,87.77
2016-06-01T05:44:26.995Z,87.39
2016-06-01T05:45:28.889Z,86.91
2016-06-01T05:46:25.548Z,87.19
2016-06-01T05:47:25.956Z,87.01
2016-06-01T05:48:27.475Z,87.29
2016-06-01T05:49:28.446Z,87.49
2016-06-01T05:50:26.840Z,87.1
2016-06-01T05:51:26.764Z,87.49
2016-06-01T05:52:26.501Z,87.58
2016-06-01T05:53:28.550Z,87.68
2016-06-01T05:54:27.288Z,87.49
2016-06-01T05:55:27.947Z,87.58
2016-06-01T05:56:29.231Z,87.58
2016-06-01T05:57:26.608Z,87.49
2016-06-01T05:58:29.549Z,87.58
2016-06-01T05:59:29.052Z,87.39
2016-06-01T06:00:27.523Z,87.39
2016-06-01T06:01:28.603Z,87.77
2016-06-01T06:02:30.263Z,87.49
2016-06-01T06:03:29.391Z,87.49
2016-06-01T06:04:27.690Z,87.39
2016-06-01T06:05:29.660Z,87.49
2016-06-01T06:06:29.507Z,87.58
2016-06-01T06:07:29.088Z,87.68
2016-06-01T06:08:29.372Z,87.58
2016-06-01T06:09:29.671Z,87.68
2016-06-01T06:10:29.752Z,87.58
2016-06-01T06:11:29.912Z,87.1
2016-06-01T06:12:29.165Z,87.24
2016-06-01T06:13:29.527Z,87.01
2016-06-01T06:14:26.185Z,86.66
2016-06-01T06:15:25.703Z,87.05
2016-06-01T06:16:30.690Z,87.15
2016-06-01T06:17:30.021Z,86.47
2016-06-01T06:18:28.867Z,86.66
2016-06-01T06:19:30.823Z,86.57
2016-06-01T06:20:28.701Z,86.85
2016-06-01T06:21:30.172Z,86.95
2016-06-01T06:22:29.269Z,86.47
2016-06-01T06:23:30.335Z,86.09
2016-06-01T06:24:27.759Z,86.18
2016-06-01T06:25:30.731Z,86.28
2016-06-01T06:26:26.077Z,86.47
2016-06-01T06:27:28.439Z,85.99
2016-06-01T06:28:24.488Z,86.13
2016-06-01T06:29:24.554Z,86.42
2016-06-01T06:30:24.572Z,86.42
2016-06-01T06:31:24.605Z,86.09
2016-06-01T06:32:24.655Z,85.61
2016-06-01T06:33:24.721Z,85.8
2016-06-01T06:34:25.146Z,85.61
2016-06-01T06:35:25.727Z,85.8
2016-06-01T06:36:24.838Z,85.84
2016-06-01T06:37:24.857Z,85.71
2016-06-01T06:38:24.890Z,85.41
2016-06-01T06:39:27.299Z,85.94
2016-06-01T06:40:26.318Z,86.09
2016-06-01T06:41:26.821Z,85.65
2016-06-01T06:42:25.074Z,85.89
2016-06-01T06:43:25.123Z,86.22
2016-06-01T06:44:25.173Z,85.94
2016-06-01T06:45:25.190Z,85.75
2016-06-01T06:46:25.256Z,86.13
2016-06-01T06:47:25.290Z,85.65
2016-06-01T06:48:25.386Z,84.88
2016-06-01T06:49:25.373Z,84.98
2016-06-01T06:50:25.407Z,85.55
2016-06-01T06:51:25.457Z,85.27
2016-06-01T06:52:25.490Z,85.07
2016-06-01T06:53:25.571Z,85.17
2016-06-01T06:54:25.683Z,85.36
2016-06-01T06:55:25.655Z,85.17
2016-06-01T06:56:25.798Z,84.98
2016-06-01T06:57:25.551Z,85.07
2016-06-01T06:58:25.742Z,84.78
2016-06-01T06:59:25.822Z,84.88
2016-06-01T07:00:25.840Z,84.98
2016-06-01T07:01:25.858Z,84.3
2016-06-01T07:02:25.924Z,85.27
2016-06-01T07:03:25.974Z,85.36
2016-06-01T07:04:25.992Z,84.98
2016-06-01T07:05:26.042Z,84.88
2016-06-01T07:06:26.075Z,84.01
2016-06-01T07:07:26.124Z,84.21
2016-06-01T07:08:26.159Z,84.4
2016-06-01T07:09:26.286Z,84.01
2016-06-01T07:10:26.305Z,84.06
2016-06-01T07:11:26.291Z,84.11
2016-06-01T07:12:26.341Z,84.21
2016-06-01T07:13:26.376Z,84.59
2016-06-01T07:14:26.424Z,84.25
2016-06-01T07:15:26.459Z,84.34
2016-06-01T07:16:26.508Z,83.96
2016-06-01T07:17:26.543Z,83.67
2016-06-01T07:18:26.607Z,83.96
2016-06-01T07:19:26.735Z,84.16
2016-06-01T07:20:26.676Z,84.44
2016-06-01T07:21:26.709Z,83.58
2016-06-01T07:22:26.790Z,84.06
2016-06-01T07:23:26.792Z,83.77
2016-06-01T07:24:26.842Z,83.77
2016-06-01T07:25:26.970Z,84.25
2016-06-01T07:26:27.504Z,84.16
2016-06-01T07:27:27.272Z,83.96
2016-06-01T07:28:27.041Z,83.63
2016-06-01T07:29:27.090Z,83.86
2016-06-01T07:30:27.092Z,84.34
2016-06-01T07:31:27.142Z,84.16
2016-06-01T07:32:28.083Z,83.67
2016-06-01T07:33:27.258Z,83.58
2016-06-01T07:34:27.275Z,83.48
2016-06-01T07:35:27.325Z,83.67
2016-06-01T07:36:27.469Z,83.39
2016-06-01T07:37:27.408Z,82.71
2016-06-01T07:38:27.926Z,82.61
2016-06-01T07:39:27.491Z,82.42
2016-06-01T07:40:27.526Z,82.71
2016-06-01T07:41:27.576Z,82.23
2016-06-01T07:42:27.610Z,81.94
2016-06-01T07:43:27.660Z,82.04
2016-06-01T07:44:27.709Z,81.6
2016-06-01T07:45:27.726Z,82.17
2016-06-01T07:46:27.698Z,81.98
2016-06-01T07:47:27.857Z,81.4
2016-06-01T07:48:27.876Z,81.6
2016-06-01T07:49:27.910Z,81.3
2016-06-01T07:50:28.568Z,81.5
2016-06-01T07:51:30.181Z,81.4
2016-06-01T07:52:27.870Z,81.21
2016-06-01T07:53:29.514Z,80.83
2016-06-01T07:54:29.189Z,80.83
2016-06-01T07:55:29.457Z,80.92
2016-06-01T07:56:28.209Z,81.21
2016-06-01T07:57:28.244Z,80.83
2016-06-01T07:58:28.293Z,80.83
2016-06-01T07:59:28.342Z,81.02
2016-06-01T08:00:28.393Z,80.06
2016-06-01T08:01:28.941Z,80.54
2016-06-01T08:02:28.803Z,80
2016-06-01T08:03:28.541Z,80.19
2016-06-01T08:04:28.559Z,79.75
2016-06-01T08:05:28.593Z,79.85
2016-06-01T08:06:28.861Z,79.56
2016-06-01T08:07:28.708Z,78.11
2016-06-01T08:08:28.945Z,76.61
2016-06-01T08:09:28.822Z,76.61
2016-06-01T08:10:30.232Z,76.13
2016-06-01T08:11:28.906Z,75.01
2016-06-01T08:12:29.190Z,75.1
2016-06-01T08:13:29.005Z,74.91
2016-06-01T08:14:28.993Z,74.37
2016-06-01T08:15:29.074Z,73.99
2016-06-01T08:16:29.076Z,73.89
2016-06-01T08:17:29.141Z,74.02
2016-06-01T08:18:29.190Z,72.77
2016-06-01T08:19:29.240Z,72.25
2016-06-01T08:20:29.243Z,71.96
2016-06-01T08:21:29.465Z,72.06
2016-06-01T08:22:29.343Z,72.89
2016-06-01T08:23:29.657Z,72.89
2016-06-01T08:24:29.566Z,73.57
2016-06-01T08:25:29.476Z,74.14
2016-06-01T08:26:29.743Z,73.75
2016-06-01T08:27:29.575Z,74.01
2016-06-01T08:28:29.608Z,74.3
2016-06-01T08:29:29.501Z,74.88
2016-06-01T08:30:29.708Z,74.58
2016-06-01T08:31:30.507Z,75.07
2016-06-01T08:32:31.119Z,75.45
2016-06-01T08:33:30.183Z,75.74
2016-06-01T08:34:31.062Z,75.36
2016-06-01T08:35:31.080Z,75.9
2016-06-01T08:36:30.005Z,75.9
2016-06-01T08:37:30.805Z,76.13
2016-06-01T08:38:30.041Z,75.65
2016-06-01T08:39:30.419Z,75.9
2016-06-01T08:40:30.141Z,76.18
2016-06-01T08:41:30.174Z,76.13
2016-06-01T08:42:30.271Z,75.84
2016-06-01T08:43:30.102Z,76.13
2016-06-01T08:44:30.308Z,76.23
2016-06-01T08:45:30.341Z,76.13
2016-06-01T08:46:30.391Z,75.55
2016-06-01T08:47:30.441Z,75.2
2016-06-01T08:48:30.538Z,75.01
2016-06-01T08:49:30.524Z,74.82
2016-06-01T08:50:30.557Z,74.66
2016-06-01T08:51:30.639Z,73.99
2016-06-01T08:52:30.673Z,73.83
2016-06-01T08:53:30.691Z,70.64
2016-06-01T08:54:31.069Z,69.9
2016-06-01T08:55:30.790Z,69.81
2016-06-01T08:56:30.824Z,69.07
2016-06-01T08:57:30.874Z,68.59
2016-06-01T08:58:30.939Z,67.62
2016-06-01T08:59:31.003Z,67.08
2016-06-01T09:00:31.007Z,67.08
2016-06-01T09:01:31.134Z,67.17
2016-06-01T09:02:31.153Z,65.85
2016-06-01T09:03:31.156Z,66.05
2016-06-01T09:04:31.189Z,65.2
2016-06-01T09:05:32.005Z,65.5
2016-06-01T09:06:31.351Z,63.98
2016-06-01T09:07:31.853Z,63.69
2016-06-01T09:08:32.013Z,63.69
2016-06-01T09:09:31.890Z,62.95
2016-06-01T09:10:31.940Z,61.88
2016-06-01T09:11:31.521Z,62.07
2016-06-01T09:12:31.446Z,62.85
2016-06-01T09:13:32.527Z,62.66
2016-06-01T09:14:31.654Z,62.75
2016-06-01T09:15:31.767Z,62.75
2016-06-01T09:16:31.825Z,63.24
2016-06-01T09:17:31.868Z,62.46
2016-06-01T09:18:31.925Z,62.07
2016-06-01T09:19:32.016Z,62.46
2016-06-01T09:20:32.056Z,62.95
2016-06-01T09:21:35.053Z,62.95
2016-06-01T09:22:32.172Z,62.75
2016-06-01T09:23:32.481Z,63.53
2016-06-01T09:24:32.961Z,63.53
2016-06-01T09:25:32.347Z,63.53
2016-06-01T09:26:32.259Z,63.53
2016-06-01T09:27:32.765Z,63.24
2016-06-01T09:28:32.598Z,63.34
2016-06-01T09:29:32.557Z,63.4
2016-06-01T09:30:32.626Z,63.21
2016-06-01T09:31:32.676Z,63.69
2016-06-01T09:32:32.681Z,63.89
2016-06-01T09:33:32.747Z,63.59
2016-06-01T09:34:32.781Z,63.79
2016-06-01T09:35:32.848Z,63.24
2016-06-01T09:36:32.882Z,63.53
2016-06-01T09:37:32.916Z,63.72
2016-06-01T09:38:32.826Z,64.01
2016-06-01T09:39:33.032Z,64.2
2016-06-01T09:40:33.050Z,64.59
2016-06-01T09:41:32.961Z,63.82
2016-06-01T09:42:33.151Z,63.92
2016-06-01T09:43:33.200Z,64.2
2016-06-01T09:44:33.250Z,63.24
2016-06-01T09:45:34.503Z,62.85
2016-06-01T09:46:33.428Z,63.62
2016-06-01T09:47:34.665Z,63.14
2016-06-01T09:48:34.496Z,63.62
2016-06-01T09:49:33.498Z,64.01
2016-06-01T09:50:34.407Z,63.82
2016-06-01T09:51:33.410Z,64.11
2016-06-01T09:52:33.898Z,63.82
2016-06-01T09:53:33.790Z,63.62
2016-06-01T09:54:33.714Z,63.82
2016-06-01T09:55:34.343Z,64.79
2016-06-01T09:56:33.814Z,64.11
2016-06-01T09:57:34.848Z,64.01
2016-06-01T09:58:33.897Z,63.72
2016-06-01T09:59:34.260Z,63.72
2016-06-01T10:00:34.356Z,63.43
2016-06-01T10:01:34.344Z,63.89
2016-06-01T10:02:34.112Z,63.79
2016-06-01T10:03:34.161Z,64.37
2016-06-01T10:04:34.210Z,63.98
2016-06-01T10:05:35.277Z,64.01
2016-06-01T10:06:34.904Z,63.79
2016-06-01T10:07:34.375Z,63.69
2016-06-01T10:08:34.815Z,63.98
2016-06-01T10:09:34.427Z,64.17
2016-06-01T10:10:34.461Z,64.37
2016-06-01T10:11:34.511Z,65.24
2016-06-01T10:12:34.561Z,65.82
2016-06-01T10:13:34.594Z,65.63
2016-06-01T10:14:34.690Z,65.5
2016-06-01T10:15:34.710Z,65.4
2016-06-01T10:16:34.743Z,65.2
2016-06-01T10:17:34.776Z,66.08
2016-06-01T10:18:34.826Z,65.98
2016-06-01T10:19:34.876Z,65.88
2016-06-01T10:20:34.910Z,66.17
2016-06-01T10:21:34.975Z,65.88
2016-06-01T10:22:35.025Z,66.82
2016-06-01T10:23:35.059Z,66.43
2016-06-01T10:24:35.109Z,67.11
2016-06-01T10:25:35.174Z,66.63
2016-06-01T10:26:35.192Z,67.01
2016-06-01T10:27:35.241Z,67.01
2016-06-01T10:28:35.338Z,66.56
2016-06-01T10:29:35.341Z,67.05
2016-06-01T10:30:35.406Z,66.75
2016-06-01T10:31:35.424Z,66.66
2016-06-01T10:32:35.317Z,65.98
2016-06-01T10:33:35.508Z,65.98
2016-06-01T10:34:35.573Z,65.82
2016-06-01T10:35:35.607Z,65.24
2016-06-01T10:36:35.641Z,65.53
2016-06-01T10:37:36.627Z,65.53
2016-06-01T10:38:35.741Z,64.85
2016-06-01T10:39:35.821Z,64.95
2016-06-01T10:40:35.838Z,64.98
2016-06-01T10:41:35.889Z,65.24
2016-06-01T10:42:35.938Z,65.24
2016-06-01T10:43:35.972Z,65.24
2016-06-01T10:44:36.021Z,65.05
2016-06-01T10:45:35.915Z,65.05
2016-06-01T10:46:36.573Z,65.43
2016-06-01T10:47:36.155Z,65.5
2016-06-01T10:48:36.204Z,66.08
2016-06-01T10:49:36.270Z,65.69
2016-06-01T10:50:36.351Z,66.17
2016-06-01T10:51:36.588Z,66.56
2016-06-01T10:52:36.387Z,66.75
2016-06-01T10:53:36.436Z,66.53
2016-06-01T10:54:36.392Z,66.91
2016-06-01T10:55:36.536Z,66.43
2016-06-01T10:56:36.601Z,67.01
2016-06-01T10:57:36.681Z,67.27
2016-06-01T10:58:36.919Z,67.46
2016-06-01T10:59:36.765Z,67.66
2016-06-01T11:00:36.768Z,67.56
2016-06-01T11:01:36.818Z,67.66
2016-06-01T11:02:36.929Z,68.14
2016-06-01T11:03:37.010Z,67.85
2016-06-01T11:04:36.997Z,69.1
2016-06-01T11:05:37.141Z,68.52
2016-06-01T11:06:37.236Z,68.62
2016-06-01T11:07:37.099Z,69.3
2016-06-01T11:08:37.180Z,68.72
2016-06-01T11:09:37.230Z,68.62
2016-06-01T11:10:37.326Z,68.52
2016-06-01T11:11:37.141Z,68.91
2016-06-01T11:12:37.331Z,69.01
2016-06-01T11:13:37.818Z,68.82
2016-06-01T11:14:37.430Z,69.1
2016-06-01T11:15:37.511Z,69.2
2016-06-01T11:16:38.467Z,68.72
2016-06-01T11:17:37.579Z,69.1
2016-06-01T11:18:37.801Z,68.62
2016-06-01T11:19:37.913Z,69.68
2016-06-01T11:20:37.665Z,68.72
2016-06-01T11:21:37.731Z,68.62
2016-06-01T11:22:37.764Z,68.72
2016-06-01T11:23:37.798Z,69.01
2016-06-01T11:24:39.192Z,69.68
2016-06-01T11:25:37.773Z,68.62
2016-06-01T11:26:37.931Z,68.91
2016-06-01T11:27:38.262Z,68.62
2016-06-01T11:28:38.015Z,69.1
2016-06-01T11:29:38.065Z,68.82
2016-06-01T11:30:38.098Z,68.82
2016-06-01T11:31:38.210Z,68.91
2016-06-01T11:32:38.228Z,68.66
2016-06-01T11:33:38.263Z,68.85
2016-06-01T11:34:38.281Z,68.95
2016-06-01T11:35:38.331Z,69.04
2016-06-01T11:36:38.428Z,68.85
2016-06-01T11:37:38.992Z,68.59
2016-06-01T11:38:38.464Z,68.11
2016-06-01T11:39:38.530Z,67.66
2016-06-01T11:40:38.578Z,66.53
2016-06-01T11:41:38.690Z,65.82
2016-06-01T11:42:38.662Z,64.78
2016-06-01T11:43:38.711Z,63.85
2016-06-01T11:44:38.746Z,62.71
2016-06-01T11:45:38.811Z,61.48
2016-06-01T11:46:38.938Z,60.9
2016-06-01T11:47:38.894Z,59.64
2016-06-01T11:48:38.788Z,59.86
2016-06-01T11:49:38.993Z,59.18
2016-06-01T11:50:39.105Z,58.59
2016-06-01T11:51:39.093Z,58.76
2016-06-01T11:52:39.126Z,58.76
2016-06-01T11:53:39.035Z,59.15
2016-06-01T11:54:39.256Z,58.44
2016-06-01T11:55:39.150Z,58.86
2016-06-01T11:56:39.340Z,58.73
2016-06-01T11:57:39.374Z,58.61
2016-06-01T11:58:39.423Z,58.8
2016-06-01T11:59:39.504Z,59.19
2016-06-01T12:00:39.539Z,59.55
2016-06-01T12:01:39.573Z,59.74
2016-06-01T12:02:39.622Z,59.64
2016-06-01T12:03:39.703Z,60
2016-06-01T12:04:39.925Z,60.78
2016-06-01T12:05:40.068Z,61.07
2016-06-01T12:06:39.679Z,60.97
2016-06-01T12:07:39.901Z,62.04
2016-06-01T12:08:39.889Z,61.85
2016-06-01T12:09:40.016Z,61.85
2016-06-01T12:10:40.580Z,61.91
2016-06-01T12:11:39.912Z,61.62
2016-06-01T12:12:40.211Z,61.91
2016-06-01T12:13:40.621Z,62.1
2016-06-01T12:14:40.202Z,62.2
2016-06-01T12:15:40.251Z,61.72
2016-06-01T12:16:40.285Z,62.01
2016-06-01T12:17:40.787Z,62.13
2016-06-01T12:18:40.368Z,62.04
2016-06-01T12:19:40.418Z,62.13
2016-06-01T12:20:40.482Z,61.46
2016-06-01T12:21:40.579Z,61.98
2016-06-01T12:22:40.660Z,62.16
2016-06-01T12:23:40.616Z,61
2016-06-01T12:24:40.681Z,60.74
2016-06-01T12:25:40.793Z,60.45
2016-06-01T12:26:40.781Z,60
2016-06-01T12:27:45.954Z,59.8
2016-06-01T12:28:42.427Z,59.22
2016-06-01T12:29:42.289Z,59.61
2016-06-01T12:30:41.994Z,59.41
2016-06-01T12:31:40.998Z,59.51
2016-06-01T12:32:41.047Z,59.03
2016-06-01T12:33:41.486Z,58.7
2016-06-01T12:34:41.177Z,59.12
2016-06-01T12:35:41.195Z,58.44
2016-06-01T12:36:41.400Z,58.93
2016-06-01T12:37:41.279Z,58.34
2016-06-01T12:38:42.594Z,58.67
2016-06-01T12:39:41.769Z,57.62
2016-06-01T12:40:42.678Z,56.77
2016-06-01T12:41:41.477Z,56.41
2016-06-01T12:42:41.511Z,55.37
2016-06-01T12:43:42.092Z,54.82
2016-06-01T12:44:41.641Z,53.67
2016-06-01T12:45:41.768Z,52.44
2016-06-01T12:46:42.116Z,51.97
2016-06-01T12:47:41.712Z,49.98
2016-06-01T12:48:41.871Z,49.19
2016-06-01T12:49:42.718Z,48.34
2016-06-01T12:50:44.938Z,47.46
2016-06-01T12:51:42.176Z,47.58
2016-06-01T12:52:41.866Z,46.31
2016-06-01T12:53:41.963Z,45.67
2016-06-01T12:54:42.418Z,43.24
2016-06-01T12:55:42.327Z,43.15